CheckWX is a tool to help pilots better visualize weather data.  It is not intended as a substitute for an official pre-flight weather briefing.

18:03:51 UTC

KOTH METAR
Southwest Oregon Regional Airport
North Bend, Oregon, USA
Current

8 mins ago

KOTH 171756Z 14008KT 10SM -RA OVC020 04/03 A3014 RMK AO2 RAE24B47 SLP205 P0001 60004 T00390028 10039 20017 51017
Observed
Feb-17 @ 17:56 UTC
Wind
  • 140° at 8 KTS
Visibility
10 SM
Flight Rules
MVFR
Conditions
Light Rain
Cloud Levels
  • Overcast at 2,000' AGL
Temperature
C / 39°F
Dewpoint
C / 37°F
Humidity
93%
Altimeter
30.14" Hg
Pressure
1020.5 hPa
Current Rain
0.01"
Previous

1 hour ago

KOTH 171656Z 16005KT 10SM -RA FEW016 BKN023 OVC033 03/02 A3012 RMK AO2 UPE05RAB05 SLP200 P0003 T00280022
Observed
Feb-17 @ 16:56 UTC
Wind
  • 160° at 5 KTS
Visibility
10 SM
Flight Rules
MVFR
Conditions
Light Rain
Cloud Levels
  • Few at 1,600' AGL
  • Broken at 2,300' AGL
  • Overcast at 3,300' AGL
Temperature
C / 37°F
Dewpoint
C / 36°F
Humidity
93%
Altimeter
30.12" Hg
Pressure
1020 hPa
Current Rain
0.03"
Previous

2 hours ago

KOTH 171604Z 14006KT 10SM UP BKN023 OVC036 03/02 A3011 RMK AO2 P0000
Observed
Feb-17 @ 16:04 UTC
Wind
  • 140° at 6 KTS
Visibility
10 SM
Flight Rules
MVFR
Conditions
Unknown precipitation
Cloud Levels
  • Broken at 2,300' AGL
  • Overcast at 3,600' AGL
Temperature
C / 37°F
Dewpoint
C / 36°F
Humidity
93%
Altimeter
30.11" Hg
Pressure
1019.62 hPa
Current Rain
0.01"